Time;durP1;ratioP1;P1;durP2;ratioP2;P2;SDS_P1;SDS_P2;PMS_P1;PMS_P2;Temp;Humidity;BMP_temperature;BMP_pressure;BME280_temperature;BME280_humidity;BME280_pressure;Samples;Min_cycle;Max_cycle;Signal;HPM_P1;HPM_P2
2022/04/08 00:01:15;;;;;;;;;;;;;;;10.64;53.03;98757.69;4973505;28;7422;-75
2022/04/08 00:03:42;;;;;;;;;;;;;;;10.66;52.82;98763.72;5005868;28;6803;-75
2022/04/08 00:06:08;;;;;;;;;;;;;;;10.69;53.01;98765.47;4971487;28;7819;-75
2022/04/08 00:08:34;;;;;;;;;;;;;;;10.71;53.26;98768.94;4981017;28;6812;-75
2022/04/08 00:11:00;;;;;;;;;;;;;;;10.76;53.00;98774.16;4970272;28;6788;-75
2022/04/08 00:13:27;;;;;;;;;;;;;;;10.79;53.16;98781.91;5008794;28;6877;-75
2022/04/08 00:15:52;;;;;;;;;;;;;;;10.81;53.30;98775.97;4978499;28;6887;-75
2022/04/08 00:18:19;;;;;;;;;;;;;;;10.85;52.79;98779.47;5008176;28;6848;-75
2022/04/08 00:20:45;;;;;;;;;;;;;;;10.87;53.43;98785.50;5004583;28;6844;-75
2022/04/08 00:23:11;;;;;;;;;;;;;;;10.90;52.61;98788.13;5008173;28;7259;-75
2022/04/08 00:25:37;;;;;;;;;;;;;;;10.91;52.93;98776.19;4979456;28;6807;-75
2022/04/08 00:28:03;;;;;;;;;;;;;;;10.88;52.90;98787.22;4992381;28;7243;-75
2022/04/08 00:30:29;;;;;;;;;;;;;;;10.84;52.38;98795.69;4971730;28;7142;-75
2022/04/08 00:32:57;;;;;;;;;;;;;;;10.80;52.96;98804.13;4979779;28;6821;-75
2022/04/08 00:35:24;;;;;;;;;;;;;;;10.76;52.68;98817.72;4983869;28;7026;-75
2022/04/08 00:37:50;;;;;;;;;;;;;;;10.72;52.84;98806.53;4964589;28;7271;-75
2022/04/08 00:40:16;;;;;;;;;;;;;;;10.68;52.88;98815.84;5008080;28;7026;-75
2022/04/08 00:42:43;;;;;;;;;;;;;;;10.66;52.80;98816.63;4996251;28;7355;-75
2022/04/08 00:45:10;;;;;;;;;;;;;;;10.63;52.82;98817.47;5009913;28;7532;-75
2022/04/08 00:47:37;;;;;;;;;;;;;;;10.61;53.38;98820.81;5009071;28;6815;-75
2022/04/08 00:50:04;;;;;;;;;;;;;;;10.61;53.38;98824.22;4978363;28;6986;-75
2022/04/08 00:52:35;;;;;;;;;;;;;;;10.60;53.44;98837.88;4975954;28;6808;-75
2022/04/08 00:55:06;;;;;;;;;;;;;;;10.60;53.69;98845.56;5010585;28;7354;-75
2022/04/08 00:57:33;;;;;;;;;;;;;;;10.60;53.00;98847.28;4955732;28;7082;-76
2022/04/08 01:00:10;;;;;;;;;;;;;;;10.59;53.00;98848.94;5010609;28;7863;-75
2022/04/08 01:02:37;;;;;;;;;;;;;;;10.56;53.04;98848.91;4970547;28;7015;-76
2022/04/08 01:05:03;;;;;;;;;;;;;;;10.55;52.66;98847.16;4964884;28;6819;-75
2022/04/08 01:07:31;;;;;;;;;;;;;;;10.51;52.77;98842.78;4968081;28;7010;-75
2022/04/08 01:09:57;;;;;;;;;;;;;;;10.46;52.41;98844.38;4962711;28;6811;-75
2022/04/08 01:12:23;;;;;;;;;;;;;;;10.44;52.35;98840.94;4979881;28;7222;-75
2022/04/08 01:14:59;;;;;;;;;;;;;;;10.41;52.04;98857.94;4991298;28;6959;-75
2022/04/08 01:17:26;;;;;;;;;;;;;;;10.42;52.75;98858.81;4978351;28;7367;-75
2022/04/08 01:19:52;;;;;;;;;;;;;;;10.41;53.13;98857.94;4966324;28;7194;-75
2022/04/08 01:22:19;;;;;;;;;;;;;;;10.45;52.70;98868.28;4983552;28;7074;-75
2022/04/08 01:24:49;;;;;;;;;;;;;;;10.50;52.73;98875.22;4967764;28;7256;-75
2022/04/08 01:27:18;;;;;;;;;;;;;;;10.56;52.90;98882.19;4996690;28;6812;-75
2022/04/08 01:29:44;;;;;;;;;;;;;;;10.60;52.95;98881.44;5007609;28;6927;-75
2022/04/08 01:32:10;;;;;;;;;;;;;;;10.64;52.61;98893.50;4970154;28;6808;-76
2022/04/08 01:34:36;;;;;;;;;;;;;;;10.70;52.75;98892.78;5008028;28;6875;-74
2022/04/08 01:37:02;;;;;;;;;;;;;;;10.73;52.33;98889.41;4992253;28;6902;-75
2022/04/08 01:39:28;;;;;;;;;;;;;;;10.76;52.15;98886.91;5014007;28;7021;-75
2022/04/08 01:41:53;;;;;;;;;;;;;;;10.76;52.39;98874.94;5008637;28;7367;-75
2022/04/08 01:44:19;;;;;;;;;;;;;;;10.77;52.39;98901.47;5006556;28;7215;-75
2022/04/08 01:46:45;;;;;;;;;;;;;;;10.79;52.61;98897.22;4986464;28;6807;-75
2022/04/08 01:49:10;;;;;;;;;;;;;;;10.78;52.06;98898.94;4966389;28;6990;-75
2022/04/08 01:51:36;;;;;;;;;;;;;;;10.78;52.65;98898.94;5005193;28;6874;-75
2022/04/08 01:54:02;;;;;;;;;;;;;;;10.79;52.42;98898.09;4978867;28;6819;-75
2022/04/08 01:56:27;;;;;;;;;;;;;;;10.81;52.02;98898.13;4987878;28;7291;-75
2022/04/08 01:58:53;;;;;;;;;;;;;;;10.80;52.58;98892.16;5005641;28;6847;-75
2022/04/08 02:01:19;;;;;;;;;;;;;;;10.82;52.55;98885.34;5009646;28;6957;-75
2022/04/08 02:03:44;;;;;;;;;;;;;;;10.82;52.50;98899.88;4973045;28;6807;-75
2022/04/08 02:06:10;;;;;;;;;;;;;;;10.83;52.52;98904.19;4978308;28;6961;-75
2022/04/08 02:08:35;;;;;;;;;;;;;;;10.84;52.34;98914.44;4973646;28;6996;-75
2022/04/08 02:11:01;;;;;;;;;;;;;;;10.86;52.54;98914.50;4999735;28;6817;-75
2022/04/08 02:13:27;;;;;;;;;;;;;;;10.88;52.54;98909.41;5009980;28;7461;-75
2022/04/08 02:15:52;;;;;;;;;;;;;;;10.86;52.43;98917.06;4998773;28;7264;-75
2022/04/08 02:18:18;;;;;;;;;;;;;;;10.84;52.63;98908.47;4978543;28;7026;-75
2022/04/08 02:20:44;;;;;;;;;;;;;;;10.82;52.34;98931.50;4977024;28;6855;-75
2022/04/08 02:23:10;;;;;;;;;;;;;;;10.79;52.59;98931.44;4979830;28;7150;-75
2022/04/08 02:25:35;;;;;;;;;;;;;;;10.80;52.22;98932.28;5009295;28;7173;-75
2022/04/08 02:28:04;;;;;;;;;;;;;;;10.80;52.51;98938.28;4976348;28;6788;-75
2022/04/08 02:30:30;;;;;;;;;;;;;;;10.80;52.53;98935.72;4974174;28;7256;-75
2022/04/08 02:32:57;;;;;;;;;;;;;;;10.82;52.67;98943.44;5010868;28;6914;-75
2022/04/08 02:35:23;;;;;;;;;;;;;;;10.82;52.25;98940.88;5007451;28;6815;-75
2022/04/08 02:37:48;;;;;;;;;;;;;;;10.80;52.68;98937.41;4990917;28;6887;-75
2022/04/08 02:40:14;;;;;;;;;;;;;;;10.79;52.77;98940.78;5013481;28;6991;-75
2022/04/08 02:42:40;;;;;;;;;;;;;;;10.75;52.72;98939.84;4989587;28;6815;-75
2022/04/08 02:45:06;;;;;;;;;;;;;;;10.72;52.88;98951.72;4973278;28;8022;-75
2022/04/08 02:47:38;;;;;;;;;;;;;;;10.68;52.18;98933.72;5017128;28;6994;-74
2022/04/08 02:50:04;;;;;;;;;;;;;;;10.66;52.59;98948.19;5009884;28;7138;-75
2022/04/08 02:52:30;;;;;;;;;;;;;;;10.64;52.78;98946.41;4987449;28;7281;-75
2022/04/08 02:54:56;;;;;;;;;;;;;;;10.62;52.54;98951.53;4979940;28;7276;-75
2022/04/08 02:57:21;;;;;;;;;;;;;;;10.58;52.97;98948.84;4986985;28;6871;-75
2022/04/08 02:59:50;;;;;;;;;;;;;;;10.52;52.71;98954.66;4989755;28;7184;-74
2022/04/08 03:02:16;;;;;;;;;;;;;;;10.44;52.75;98958.75;4978579;28;6832;-74
2022/04/08 03:04:41;;;;;;;;;;;;;;;10.35;52.91;98939.72;5010793;28;7859;-74
2022/04/08 03:07:07;;;;;;;;;;;;;;;10.29;53.04;98942.13;4978928;28;6791;-74
2022/04/08 03:09:33;;;;;;;;;;;;;;;10.20;53.26;98940.19;4976593;28;6995;-74
2022/04/08 03:11:58;;;;;;;;;;;;;;;10.12;53.13;98939.13;4980795;28;6823;-74
2022/04/08 03:14:24;;;;;;;;;;;;;;;10.05;53.41;98943.22;5009790;28;7210;-74
2022/04/08 03:16:50;;;;;;;;;;;;;;;9.97;53.26;98937.03;4976081;28;7149;-74
2022/04/08 03:19:18;;;;;;;;;;;;;;;9.93;53.06;98937.75;4980007;28;7289;-74
2022/04/08 03:21:44;;;;;;;;;;;;;;;9.85;53.42;98930.75;5003673;28;7014;-74
2022/04/08 03:24:10;;;;;;;;;;;;;;;9.81;54.09;98939.16;5011004;28;6811;-74
2022/04/08 03:26:37;;;;;;;;;;;;;;;9.78;53.51;98948.44;5011335;28;7437;-75
2022/04/08 03:29:03;;;;;;;;;;;;;;;9.74;53.53;98944.94;4995048;28;7397;-74
2022/04/08 03:31:29;;;;;;;;;;;;;;;9.70;52.94;98945.69;5006603;28;7030;-74
2022/04/08 03:33:55;;;;;;;;;;;;;;;9.67;53.85;98949.00;4993342;28;6963;-74
2022/04/08 03:36:22;;;;;;;;;;;;;;;9.65;54.14;98954.91;4979962;28;6843;-74
2022/04/08 03:38:47;;;;;;;;;;;;;;;9.63;54.00;98960.00;4957721;28;6884;-74
2022/04/08 03:41:13;;;;;;;;;;;;;;;9.62;53.20;98959.94;4973505;28;7283;-74
2022/04/08 03:43:39;;;;;;;;;;;;;;;9.61;54.40;98969.31;5010146;28;6791;-74
2022/04/08 03:46:04;;;;;;;;;;;;;;;9.61;53.48;98973.56;5007573;28;6835;-74
2022/04/08 03:48:30;;;;;;;;;;;;;;;9.61;54.37;98968.44;4985796;28;6878;-74
2022/04/08 03:50:56;;;;;;;;;;;;;;;9.62;54.25;98970.16;4973642;28;7010;-74
2022/04/08 03:53:22;;;;;;;;;;;;;;;9.59;54.28;98976.94;4988545;28;7145;-74
2022/04/08 03:55:48;;;;;;;;;;;;;;;9.59;53.75;98982.06;5009812;28;6811;-74
2022/04/08 03:58:13;;;;;;;;;;;;;;;9.57;54.13;98970.91;4995367;28;7206;-74
2022/04/08 04:00:40;;;;;;;;;;;;;;;9.56;54.11;98973.41;4988744;28;7051;-74
2022/04/08 04:03:05;;;;;;;;;;;;;;;9.54;54.19;98973.38;5008639;28;7958;-74
2022/04/08 04:05:35;;;;;;;;;;;;;;;9.50;53.70;98971.56;4987950;28;6955;-74
2022/04/08 04:08:02;;;;;;;;;;;;;;;9.50;53.48;98978.34;5008068;28;7147;-75
2022/04/08 04:10:28;;;;;;;;;;;;;;;9.47;53.83;98984.25;4975071;28;9376;-75
2022/04/08 04:12:53;;;;;;;;;;;;;;;9.43;53.99;98985.84;4987914;28;6995;-74
2022/04/08 04:15:20;;;;;;;;;;;;;;;9.40;53.94;98984.88;4977290;28;6890;-74
2022/04/08 04:17:46;;;;;;;;;;;;;;;9.35;54.40;98978.75;5002894;28;6899;-74
2022/04/08 04:20:12;;;;;;;;;;;;;;;9.33;53.91;98986.41;4973931;28;7013;-75
2022/04/08 04:22:38;;;;;;;;;;;;;;;9.30;54.22;98976.94;4970306;28;6896;-75
2022/04/08 04:25:05;;;;;;;;;;;;;;;9.28;54.55;98976.03;4981002;28;6812;-74
2022/04/08 04:27:31;;;;;;;;;;;;;;;9.27;53.70;98974.31;4978326;28;6791;-74
2022/04/08 04:29:56;;;;;;;;;;;;;;;9.24;54.23;98965.66;5006089;28;6783;-74
2022/04/08 04:32:22;;;;;;;;;;;;;;;9.20;54.67;98959.59;5003705;28;6874;-74
2022/04/08 04:34:48;;;;;;;;;;;;;;;9.18;54.60;98961.25;4993040;28;7037;-74
2022/04/08 04:37:14;;;;;;;;;;;;;;;9.15;53.87;98962.00;4991970;28;7216;-74
2022/04/08 04:39:39;;;;;;;;;;;;;;;9.12;54.97;98953.38;4972263;28;6839;-74
2022/04/08 04:42:07;;;;;;;;;;;;;;;9.11;54.37;98954.19;4962241;28;7273;-74
2022/04/08 04:44:33;;;;;;;;;;;;;;;9.09;54.74;98958.41;4994992;28;7083;-74
2022/04/08 04:46:58;;;;;;;;;;;;;;;9.06;54.45;98948.06;5012325;28;7067;-74
2022/04/08 04:49:24;;;;;;;;;;;;;;;9.05;54.61;98954.88;5016588;28;8956;-74
2022/04/08 04:51:51;;;;;;;;;;;;;;;9.02;54.55;98960.75;4984505;28;7030;-74
2022/04/08 04:54:17;;;;;;;;;;;;;;;9.01;54.41;98963.25;4986417;28;6795;-74
2022/04/08 04:56:43;;;;;;;;;;;;;;;8.99;55.14;98958.13;5015601;28;6799;-74
2022/04/08 04:59:10;;;;;;;;;;;;;;;9.00;55.26;98964.97;4967862;28;6891;-74
2022/04/08 05:01:36;;;;;;;;;;;;;;;9.00;54.75;98964.06;5010327;28;6983;-74
2022/04/08 05:04:01;;;;;;;;;;;;;;;9.00;54.91;98974.31;5012415;28;6827;-74
2022/04/08 05:06:27;;;;;;;;;;;;;;;9.02;55.38;98976.09;4975946;28;7888;-74
2022/04/08 05:08:53;;;;;;;;;;;;;;;9.01;54.61;98969.25;5013750;28;7231;-74
2022/04/08 05:11:18;;;;;;;;;;;;;;;9.01;54.84;98966.69;4984898;28;6815;-74
2022/04/08 05:13:44;;;;;;;;;;;;;;;9.01;55.07;98968.38;5012587;28;7048;-74
2022/04/08 05:16:10;;;;;;;;;;;;;;;9.03;55.59;98970.16;4986620;28;6819;-74
2022/04/08 05:18:37;;;;;;;;;;;;;;;9.03;54.79;98969.31;4970340;28;6870;-74
2022/04/08 05:21:04;;;;;;;;;;;;;;;9.03;55.03;98964.19;5015405;28;6816;-74
2022/04/08 05:23:29;;;;;;;;;;;;;;;9.03;55.10;98965.03;5012234;28;6811;-74
2022/04/08 05:25:59;;;;;;;;;;;;;;;9.03;55.46;98967.59;4990332;28;6946;-74
2022/04/08 05:28:25;;;;;;;;;;;;;;;9.04;54.52;98971.03;4971107;28;6809;-74
2022/04/08 05:30:51;;;;;;;;;;;;;;;9.07;55.80;98965.13;4993545;28;6795;-74
2022/04/08 05:33:16;;;;;;;;;;;;;;;9.10;55.71;98967.81;5014116;28;6788;-74
2022/04/08 05:35:42;;;;;;;;;;;;;;;9.13;55.28;98966.22;5008667;28;6999;-74
2022/04/08 05:38:08;;;;;;;;;;;;;;;9.21;55.58;98968.09;4977427;28;9536;-74
2022/04/08 05:40:34;;;;;;;;;;;;;;;9.26;55.03;98967.44;5008280;28;6862;-74
2022/04/08 05:42:59;;;;;;;;;;;;;;;9.33;55.60;98970.19;4970457;28;6975;-74
2022/04/08 05:45:25;;;;;;;;;;;;;;;9.38;55.11;98963.53;4996352;28;7324;-74
2022/04/08 05:47:54;;;;;;;;;;;;;;;9.43;55.16;98962.84;4974078;28;6820;-74
2022/04/08 05:50:20;;;;;;;;;;;;;;;9.49;55.52;98957.03;4992720;28;7015;-75
2022/04/08 05:52:52;;;;;;;;;;;;;;;9.56;54.87;98955.50;4971953;28;6804;-74
2022/04/08 05:55:18;;;;;;;;;;;;;;;9.62;55.54;98952.25;4996450;28;7888;-74
2022/04/08 05:57:43;;;;;;;;;;;;;;;9.67;54.71;98954.13;5005825;28;7035;-74
2022/04/08 06:00:13;;;;;;;;;;;;;;;9.74;54.88;98950.03;5008963;28;6832;-74
2022/04/08 06:02:43;;;;;;;;;;;;;;;9.82;55.42;98950.28;5008632;28;6811;-74
2022/04/08 06:05:11;;;;;;;;;;;;;;;9.88;54.71;98952.97;4976308;28;6903;-74
2022/04/08 06:07:49;;;;;;;;;;;;;;;9.96;55.28;98950.66;4972988;28;7269;-74
2022/04/08 06:10:18;;;;;;;;;;;;;;;10.04;55.22;98949.16;4973037;28;6804;-74
2022/04/08 06:12:49;;;;;;;;;;;;;;;10.10;54.44;98941.63;5009534;28;6819;-74
2022/04/08 06:15:16;;;;;;;;;;;;;;;10.17;54.66;98931.56;4997318;28;6837;-75
2022/04/08 06:17:42;;;;;;;;;;;;;;;10.26;54.56;98939.50;4991582;28;6812;-75
2022/04/08 06:20:10;;;;;;;;;;;;;;;10.33;54.47;98943.91;4982911;28;7880;-75
2022/04/08 06:22:40;;;;;;;;;;;;;;;10.43;54.40;98947.63;5010162;28;6815;-75
2022/04/08 06:25:18;;;;;;;;;;;;;;;10.51;54.18;98947.81;4997479;28;7039;-75
2022/04/08 06:27:44;;;;;;;;;;;;;;;10.58;54.37;98947.13;5012831;28;7173;-75
2022/04/08 06:30:14;;;;;;;;;;;;;;;10.66;54.15;98949.88;4987368;28;7062;-74
2022/04/08 06:32:45;;;;;;;;;;;;;;;10.74;53.99;98948.38;4977708;28;6815;-74
2022/04/08 06:35:11;;;;;;;;;;;;;;;10.83;53.69;98958.00;4974351;28;6887;-74
2022/04/08 06:37:37;;;;;;;;;;;;;;;10.91;53.96;98951.34;5013816;28;7197;-75
2022/04/08 06:40:07;;;;;;;;;;;;;;;11.01;53.82;98951.53;4979222;28;7283;-75
2022/04/08 06:42:32;;;;;;;;;;;;;;;11.07;53.64;98947.44;4971058;28;7016;-75
2022/04/08 06:44:59;;;;;;;;;;;;;;;11.15;53.52;98945.03;5001903;28;6986;-75
2022/04/08 06:47:25;;;;;;;;;;;;;;;11.24;53.80;98952.06;4982234;28;8146;-75
2022/04/08 06:49:51;;;;;;;;;;;;;;;11.33;53.74;98952.25;4980486;28;7655;-75
2022/04/08 06:52:16;;;;;;;;;;;;;;;11.46;53.53;98943.13;4982895;28;6799;-74
2022/04/08 06:54:42;;;;;;;;;;;;;;;11.62;53.58;98948.59;4981953;28;6886;-74
2022/04/08 06:57:08;;;;;;;;;;;;;;;11.77;53.45;98945.47;4995294;28;7652;-74
2022/04/08 06:59:35;;;;;;;;;;;;;;;11.92;53.04;98955.16;4970903;28;7248;-74
2022/04/08 07:02:02;;;;;;;;;;;;;;;12.02;52.70;98944.28;4985664;28;6968;-74
2022/04/08 07:04:28;;;;;;;;;;;;;;;12.11;51.92;98940.16;4969865;28;6971;-74
2022/04/08 07:06:55;;;;;;;;;;;;;;;12.17;51.64;98935.97;4992011;28;7217;-74
2022/04/08 07:09:20;;;;;;;;;;;;;;;12.22;51.51;98938.63;4969170;28;6895;-74
2022/04/08 07:11:49;;;;;;;;;;;;;;;12.25;51.46;98933.53;4998994;28;7224;-74
2022/04/08 07:14:15;;;;;;;;;;;;;;;12.28;51.03;98937.88;4983830;28;6824;-75
2022/04/08 07:16:43;;;;;;;;;;;;;;;12.31;51.23;98932.78;4990358;28;7131;-75
2022/04/08 07:19:13;;;;;;;;;;;;;;;12.30;50.83;98937.06;5013745;28;6903;-75
2022/04/08 07:21:39;;;;;;;;;;;;;;;12.30;50.33;98929.34;4969582;28;8269;-75
2022/04/08 07:24:05;;;;;;;;;;;;;;;12.27;50.48;98929.31;5016273;28;6783;-74
2022/04/08 07:26:31;;;;;;;;;;;;;;;12.24;50.87;98926.66;4983784;28;6875;-74
2022/04/08 07:28:57;;;;;;;;;;;;;;;12.24;50.80;98925.81;4989819;28;6784;-74
2022/04/08 07:31:22;;;;;;;;;;;;;;;12.23;50.64;98924.94;4996296;28;6958;-75
2022/04/08 07:33:48;;;;;;;;;;;;;;;12.22;50.64;98923.22;4994143;28;6975;-75
2022/04/08 07:36:14;;;;;;;;;;;;;;;12.22;50.70;98929.22;4979461;28;6801;-75
2022/04/08 07:38:40;;;;;;;;;;;;;;;12.22;50.94;98929.22;5011719;28;6811;-75
2022/04/08 07:41:06;;;;;;;;;;;;;;;12.25;50.74;98932.69;5013822;28;7352;-75
2022/04/08 07:43:31;;;;;;;;;;;;;;;12.28;50.42;98932.72;5014846;28;7166;-75
2022/04/08 07:45:57;;;;;;;;;;;;;;;12.31;50.20;98928.50;4982038;28;7896;-75
2022/04/08 07:48:23;;;;;;;;;;;;;;;12.34;50.52;98926.00;5016919;28;7003;-75
2022/04/08 07:50:48;;;;;;;;;;;;;;;12.42;50.13;98930.41;4998607;28;7406;-75
2022/04/08 07:53:15;;;;;;;;;;;;;;;12.47;50.31;98928.78;4997502;28;7171;-75
2022/04/08 07:55:41;;;;;;;;;;;;;;;12.54;49.88;98928.03;5014316;28;7162;-75
2022/04/08 07:58:07;;;;;;;;;;;;;;;12.60;50.37;98917.84;4997895;28;6855;-75
2022/04/08 08:00:33;;;;;;;;;;;;;;;12.67;50.23;98917.97;5008848;28;6792;-75
2022/04/08 08:03:00;;;;;;;;;;;;;;;12.72;50.25;98917.19;4971909;28;8472;-75
2022/04/08 08:05:27;;;;;;;;;;;;;;;12.79;49.93;98907.88;4983206;28;7115;-75
2022/04/08 08:07:57;;;;;;;;;;;;;;;12.86;49.43;98901.09;5009725;28;6891;-74
2022/04/08 08:10:28;;;;;;;;;;;;;;;12.89;49.90;98896.88;5013146;28;6856;-75
2022/04/08 08:12:56;;;;;;;;;;;;;;;12.91;49.85;98900.31;5007171;28;7295;-75
2022/04/08 08:15:23;;;;;;;;;;;;;;;12.92;49.74;98890.91;4990713;28;6986;-75
2022/04/08 08:17:50;;;;;;;;;;;;;;;12.95;49.88;98892.66;5011220;28;7860;-75
2022/04/08 08:20:19;;;;;;;;;;;;;;;12.98;49.12;98890.13;5008777;28;7118;-74
2022/04/08 08:22:46;;;;;;;;;;;;;;;13.01;49.72;98885.03;5011164;28;7678;-74
2022/04/08 08:25:14;;;;;;;;;;;;;;;13.05;49.55;98891.94;5010884;28;7081;-74
2022/04/08 08:27:55;;;;;;;;;;;;;;;13.10;49.45;98882.56;5010226;28;7048;-74
2022/04/08 08:30:22;;;;;;;;;;;;;;;13.11;48.75;98886.03;4983030;28;7035;-74
2022/04/08 08:32:49;;;;;;;;;;;;;;;13.11;48.08;98876.59;5008340;28;8207;-74
2022/04/08 08:35:17;;;;;;;;;;;;;;;13.15;48.90;98882.63;5014196;28;7129;-74
2022/04/08 08:37:44;;;;;;;;;;;;;;;13.20;47.97;98876.69;4991269;28;7249;-74
2022/04/08 08:40:12;;;;;;;;;;;;;;;13.25;48.50;98871.63;4973945;28;7210;-75
2022/04/08 08:42:44;;;;;;;;;;;;;;;13.31;47.80;98865.69;4970709;28;7009;-75
2022/04/08 08:45:12;;;;;;;;;;;;;;;13.37;47.59;98868.34;4964976;28;9523;-75
2022/04/08 08:47:39;;;;;;;;;;;;;;;13.40;46.96;98863.22;4972070;28;8211;-75
2022/04/08 08:50:07;;;;;;;;;;;;;;;13.41;47.28;98854.66;5011100;28;7113;-75
2022/04/08 08:52:33;;;;;;;;;;;;;;;13.42;47.00;98846.13;4985579;28;7482;-75
2022/04/08 08:55:04;;;;;;;;;;;;;;;13.44;47.58;98848.69;4970405;28;6963;-75
2022/04/08 08:57:30;;;;;;;;;;;;;;;13.45;46.93;98846.16;4979694;28;6896;-75
2022/04/08 09:00:06;;;;;;;;;;;;;;;13.46;46.38;98847.00;5012246;28;6784;-75
2022/04/08 09:02:32;;;;;;;;;;;;;;;13.47;46.49;98849.63;4982355;28;6815;-75
2022/04/08 09:04:57;;;;;;;;;;;;;;;13.52;46.26;98835.91;4985113;28;7121;-75
2022/04/08 09:07:29;;;;;;;;;;;;;;;13.59;45.80;98835.16;5005189;28;7059;-75
2022/04/08 09:09:57;;;;;;;;;;;;;;;13.68;45.89;98830.09;4981514;28;6895;-74
2022/04/08 09:12:27;;;;;;;;;;;;;;;13.79;46.62;98822.50;4980379;28;7175;-74
2022/04/08 09:14:57;;;;;;;;;;;;;;;13.90;45.55;98817.41;4983504;28;7331;-74
2022/04/08 09:17:26;;;;;;;;;;;;;;;13.93;45.95;98807.16;4975089;28;6848;-74
2022/04/08 09:19:55;;;;;;;;;;;;;;;13.94;45.15;98814.03;5010069;28;6792;-74
2022/04/08 09:22:27;;;;;;;;;;;;;;;13.98;44.82;98805.47;4984260;28;6971;-75
2022/04/08 09:24:52;;;;;;;;;;;;;;;14.03;45.03;98802.94;4979986;28;7231;-75
2022/04/08 09:27:18;;;;;;;;;;;;;;;14.04;44.74;98802.09;4983231;28;7433;-75
2022/04/08 09:29:45;;;;;;;;;;;;;;;14.06;44.37;98799.53;4969541;28;7227;-75
2022/04/08 09:32:14;;;;;;;;;;;;;;;14.07;44.06;98796.09;4981846;28;6800;-75
2022/04/08 09:34:43;;;;;;;;;;;;;;;14.01;44.41;98795.22;4971026;28;6872;-75
2022/04/08 09:37:15;;;;;;;;;;;;;;;13.99;43.65;98790.91;5010312;28;6876;-75
2022/04/08 09:40:03;;;;;;;;;;;;;;;13.99;44.87;98790.91;4974268;28;7806;-74
2022/04/08 09:42:47;;;;;;;;;;;;;;;14.02;44.43;98802.09;5007658;28;6891;-74
2022/04/08 09:45:14;;;;;;;;;;;;;;;14.06;43.63;98808.13;5009642;28;7864;-75
2022/04/08 09:47:41;;;;;;;;;;;;;;;14.09;43.73;98807.28;5013270;28;6795;-75
2022/04/08 09:50:10;;;;;;;;;;;;;;;14.09;44.50;98810.72;4981714;28;6796;-75
2022/04/08 09:52:41;;;;;;;;;;;;;;;14.10;43.82;98809.88;4971915;28;7130;-75
2022/04/08 09:55:09;;;;;;;;;;;;;;;14.08;43.63;98810.72;5010976;28;6994;-74
2022/04/08 09:57:39;;;;;;;;;;;;;;;14.06;43.01;98812.41;4984612;28;6943;-74
2022/04/08 10:00:07;;;;;;;;;;;;;;;14.02;42.92;98817.56;4982903;28;9035;-74
2022/04/08 10:02:41;;;;;;;;;;;;;;;14.02;42.70;98822.69;4973138;28;7247;-74
2022/04/08 10:05:09;;;;;;;;;;;;;;;14.01;43.61;98823.56;4973912;28;6982;-74
2022/04/08 10:07:36;;;;;;;;;;;;;;;13.99;43.76;98822.66;4995854;28;6841;-74
2022/04/08 10:10:27;;;;;;;;;;;;;;;14.07;44.05;98830.47;4990305;28;7018;-74
2022/04/08 10:13:24;;;;;;;;;;;;;;;14.10;43.05;98816.72;5016195;28;6816;-74
2022/04/08 10:16:11;;;;;;;;;;;;;;;14.08;42.61;98827.03;4987251;28;7497;-74
2022/04/08 10:18:40;;;;;;;;;;;;;;;14.06;42.07;98823.59;5013942;28;6914;-74
2022/04/08 10:21:06;;;;;;;;;;;;;;;14.04;41.66;98820.13;4981254;28;7214;-74
2022/04/08 10:23:58;;;;;;;;;;;;;;;14.00;41.72;98815.81;5013015;28;7097;-73
2022/04/08 10:26:27;;;;;;;;;;;;;;;13.98;41.68;98809.78;4987589;28;6879;-73
2022/04/08 10:28:55;;;;;;;;;;;;;;;13.96;42.56;98807.19;4976445;28;6799;-73
2022/04/08 10:31:26;;;;;;;;;;;;;;;13.96;42.64;98808.91;4971924;28;7220;-73
2022/04/08 10:34:01;;;;;;;;;;;;;;;13.96;42.18;98801.19;4997390;28;7319;-73
2022/04/08 10:36:35;;;;;;;;;;;;;;;13.98;42.60;98797.75;5012213;28;6952;-73
2022/04/08 10:39:16;;;;;;;;;;;;;;;14.01;41.98;98784.91;4976676;28;6812;-74
2022/04/08 10:42:03;;;;;;;;;;;;;;;14.03;42.92;98785.78;4981106;28;6887;-74
2022/04/08 10:44:38;;;;;;;;;;;;;;;14.05;41.81;98770.34;4975508;28;6888;-74
2022/04/08 10:47:14;;;;;;;;;;;;;;;14.09;42.91;98772.09;5011582;28;6855;-74
2022/04/08 10:50:07;;;;;;;;;;;;;;;14.10;41.97;98758.34;4982069;28;6803;-74
2022/04/08 10:52:41;;;;;;;;;;;;;;;14.10;42.71;98747.16;4964651;28;6994;-74
2022/04/08 10:55:12;;;;;;;;;;;;;;;14.08;42.40;98744.59;4996037;28;6981;-74
2022/04/08 10:57:43;;;;;;;;;;;;;;;14.11;42.13;98741.19;5005950;28;7188;-74
2022/04/08 11:00:19;;;;;;;;;;;;;;;14.13;42.23;98726.59;5006903;28;6807;-74
2022/04/08 11:02:46;;;;;;;;;;;;;;;14.16;42.42;98726.63;5011876;28;6976;-74
2022/04/08 11:05:14;;;;;;;;;;;;;;;14.15;41.70;98725.78;5012298;28;6973;-74
2022/04/08 11:07:47;;;;;;;;;;;;;;;14.18;42.20;98719.75;4982423;28;6835;-74
2022/04/08 11:10:19;;;;;;;;;;;;;;;14.17;42.09;98720.59;4973169;28;7164;-74
2022/04/08 11:12:48;;;;;;;;;;;;;;;14.19;42.03;98713.75;4984952;28;7176;-74
2022/04/08 11:15:16;;;;;;;;;;;;;;;14.24;42.40;98716.34;4954308;28;6937;-74
2022/04/08 11:17:43;;;;;;;;;;;;;;;14.29;41.14;98719.81;4989021;28;6826;-74
2022/04/08 11:20:18;;;;;;;;;;;;;;;14.33;41.80;98710.41;5014538;28;6804;-73
2022/04/08 11:22:49;;;;;;;;;;;;;;;14.33;41.98;98693.22;4972526;28;6827;-74
2022/04/08 11:25:30;;;;;;;;;;;;;;;14.36;41.89;98700.97;4968349;28;6808;-74
2022/04/08 11:28:16;;;;;;;;;;;;;;;14.37;40.93;98702.69;5021928;28;7539;-74
2022/04/08 11:30:44;;;;;;;;;;;;;;;14.39;41.53;98703.56;4975609;28;7058;-74
2022/04/08 11:33:18;;;;;;;;;;;;;;;14.43;41.52;98694.97;4972775;28;6882;-74
2022/04/08 11:35:46;;;;;;;;;;;;;;;14.50;41.06;98690.75;5016527;28;7543;-74
2022/04/08 11:38:18;;;;;;;;;;;;;;;14.56;40.63;98688.16;4980516;28;6975;-74
2022/04/08 11:40:45;;;;;;;;;;;;;;;14.62;41.18;98686.47;4973393;28;6816;-74
2022/04/08 11:43:16;;;;;;;;;;;;;;;14.58;41.17;98678.75;5011223;28;6972;-74
2022/04/08 11:45:43;;;;;;;;;;;;;;;14.53;40.36;98676.97;5015189;28;6911;-74
2022/04/08 11:48:20;;;;;;;;;;;;;;;14.50;40.91;98670.13;4987538;28;6887;-74
2022/04/08 11:50:50;;;;;;;;;;;;;;;14.54;40.96;98671.00;4988321;28;6971;-73
2022/04/08 11:53:23;;;;;;;;;;;;;;;14.55;40.96;98667.56;4954402;28;6812;-73
2022/04/08 11:56:00;;;;;;;;;;;;;;;14.56;40.47;98659.81;5009980;28;7912;-73
2022/04/08 11:58:29;;;;;;;;;;;;;;;14.56;40.72;98653.81;5010166;28;6866;-73
2022/04/08 12:01:00;;;;;;;;;;;;;;;14.55;39.54;98650.34;5016072;28;7328;-73
2022/04/08 12:03:32;;;;;;;;;;;;;;;14.54;39.76;98647.78;4982582;28;7894;-74
2022/04/08 12:06:00;;;;;;;;;;;;;;;14.55;39.71;98652.94;5009410;28;6981;-74
2022/04/08 12:08:27;;;;;;;;;;;;;;;14.58;40.01;98655.53;4988863;28;7005;-74
2022/04/08 12:10:57;;;;;;;;;;;;;;;14.66;40.89;98649.53;4974723;28;6869;-74
2022/04/08 12:13:25;;;;;;;;;;;;;;;14.75;40.20;98648.75;4980764;28;7119;-74
2022/04/08 12:15:58;;;;;;;;;;;;;;;14.85;40.08;98646.19;5007427;28;6819;-74
2022/04/08 12:18:33;;;;;;;;;;;;;;;14.92;39.67;98646.22;4989444;28;7253;-74
2022/04/08 12:21:05;;;;;;;;;;;;;;;14.94;39.96;98644.47;4980286;28;6800;-74
2022/04/08 12:23:31;;;;;;;;;;;;;;;14.94;39.41;98641.91;4955373;28;6990;-74
2022/04/08 12:25:59;;;;;;;;;;;;;;;14.92;39.58;98641.91;4988422;28;6879;-74
2022/04/08 12:28:31;;;;;;;;;;;;;;;14.88;39.54;98639.34;4963542;28;7146;-74
2022/04/08 12:30:57;;;;;;;;;;;;;;;14.82;39.42;98641.03;5011371;28;6808;-74
2022/04/08 12:33:23;;;;;;;;;;;;;;;14.80;38.58;98637.59;4998504;28;7189;-74
2022/04/08 12:35:49;;;;;;;;;;;;;;;14.79;39.34;98635.88;5008597;28;6856;-74
2022/04/08 12:38:22;;;;;;;;;;;;;;;14.79;38.75;98635.00;4977858;28;6792;-74
2022/04/08 12:40:49;;;;;;;;;;;;;;;14.74;38.81;98634.97;5005017;28;7978;-74
2022/04/08 12:43:15;;;;;;;;;;;;;;;14.72;38.95;98634.09;4995709;28;7190;-74
2022/04/08 12:45:42;;;;;;;;;;;;;;;14.74;38.67;98621.25;4975850;28;6982;-75
2022/04/08 12:48:08;;;;;;;;;;;;;;;14.76;38.74;98620.38;5011799;28;7209;-74
2022/04/08 12:50:35;;;;;;;;;;;;;;;14.80;38.34;98616.09;5003159;28;8181;-74
2022/04/08 12:53:01;;;;;;;;;;;;;;;14.80;38.11;98610.94;5008597;28;6808;-74
2022/04/08 12:55:27;;;;;;;;;;;;;;;14.81;38.26;98613.50;5006655;28;7238;-74
2022/04/08 12:57:54;;;;;;;;;;;;;;;14.83;37.52;98619.53;4978578;28;6780;-74
2022/04/08 13:00:20;;;;;;;;;;;;;;;14.82;37.13;98611.78;4986921;28;6902;-74
2022/04/08 13:02:46;;;;;;;;;;;;;;;14.78;37.99;98616.09;4980218;28;6899;-74
2022/04/08 13:05:12;;;;;;;;;;;;;;;14.76;37.88;98615.22;5009492;28;6901;-74